FW3904 Weather Reports


time (UTC)temp
C
wind
direction
speed
KPH
gust
KPH
rain 1hr
cm
rain 24hr
cm
rain mn
cm
humidity
%
barometer
mb
20200229103017 13 22 3.2 6.4 0.00 0.00 0.00 58 1026.5
20200229102017 14 112 1.6 3.2 0.00 0.00 0.00 63 1026.5
20200229101017 14 67 3.2 6.4 0.00 0.00 0.00 64 1026.7
20200229100017 14 67 3.2 6.4 0.00 0.00 0.00 63 1026.9
20200229095017 14 67 4.8 6.4 0.00 0.00 0.00 64 1027.1
20200229094017 14 112 3.2 8.0 0.00 0.00 0.00 66 1027.3
20200229093016 13 315 1.6 4.8 0.00 0.00 0.00 65 1027.5
20200229092017 13 292 3.2 6.4 0.00 0.00 0.00 64 1027.6
20200229091016 12 292 4.8 9.7 0.00 0.00 0.00 63 1027.6
20200229090017 13 225 3.2 4.8 0.00 0.00 0.00 62 1027.7
20200229085017 13 135 1.6 4.8 0.00 0.00 0.00 64 1027.8
20200229084019 14 157 1.6 3.2 0.00 0.00 0.00 60 1027.8
20200229083016 15 157 1.6 3.2 0.00 0.00 0.00 59 1028.3
20200229082019 15 135 4.8 16.1 0.00 0.00 0.00 62 1028.6
20200229081016 14 135 3.2 4.8 0.00 0.00 0.00 62 1028.7
20200229080016 13 202 1.6 3.2 0.00 0.00 0.00 62 1028.7
20200229075017 13 0.0 0.0 0.00 0.00 0.00 61 1028.8
20200229074016 14 0.0 3.2 0.00 0.00 0.00 60 1028.9
20200229073016 14 0.0 3.2 0.00 0.00 0.00 59 1029.1
20200229072017 14 202 3.2 4.8 0.00 0.00 0.00 59 1029.2
20200229071016 15 202 3.2 4.8 0.00 0.00 0.00 58 1029.3
20200229070018 15 202 4.8 6.4 0.00 0.00 0.00 57 1029.5
20200229065016 15 180 4.8 6.4 0.00 0.00 0.00 55 1029.5
20200229064017 15 180 4.8 9.7 0.00 0.00 0.00 57 1029.8
20200229063017 15 157 6.4 11.3 0.00 0.00 0.00 57 1029.9
20200229062016 15 180 3.2 8.0 0.00 0.00 0.00 56 1029.9
20200229061017 15 202 3.2 6.4 0.00 0.00 0.00 55 1030.0
20200229060016 15 202 6.4 9.7 0.00 0.00 0.00 56 1030.0
20200229055016 15 180 4.8 9.7 0.00 0.00 0.00 55 1030.1
20200229054016 15 180 3.2 8.0 0.00 0.00 0.00 56 1030.3
20200229053016 15 225 3.2 4.8 0.00 0.00 0.00 56 1030.5
20200229052017 15 247 4.8 6.4 0.00 0.00 0.00 56 1030.7
20200229051016 15 247 6.4 8.0 0.00 0.00 0.00 55 1030.4
20200229050017 15 225 4.8 6.4 0.00 0.00 0.00 55 1030.4
20200229045016 15 225 6.4 9.7 0.00 0.00 0.00 55 1030.2
20200229044016 15 225 6.4 9.7 0.00 0.00 0.00 54 1030.1
20200229043016 16 225 6.4 8.0 0.00 0.00 0.00 54 1030.1
20200229042016 16 225 8.0 11.3 0.00 0.00 0.00 53 1030.2
20200229041016 16 225 8.0 11.3 0.00 0.00 0.00 54 1030.1
20200229040016 16 247 8.0 11.3 0.00 0.00 0.00 55 1030.1
20200229035016 16 225 4.8 8.0 0.00 0.00 0.00 52 1030.2
20200229034016 16 225 6.4 6.4 0.00 0.00 0.00 51 1029.9
20200229033016 17 202 6.4 9.7 0.00 0.00 0.00 49 1029.8
20200229032016 17 157 6.4 14.5 0.00 0.00 0.00 49 1029.8
20200229031016 17 157 9.7 14.5 0.00 0.00 0.00 48 1029.6
20200229030016 17 157 6.4 14.5 0.00 0.00 0.00 48 1029.2
20200229025016 18 135 8.0 12.9 0.00 0.00 0.00 48 1029.2
20200229024016 18 135 6.4 12.9 0.00 0.00 0.00 47 1029.1
20200229023016 18 135 8.0 14.5 0.00 0.00 0.00 47 1028.8
20200229022016 18 135 16.1 24.1 0.00 0.00 0.00 47 1028.6
20200229021016 19 135 12.9 20.9 0.00 0.00 0.00 46 1028.5
20200229020016 19 112 14.5 20.9 0.00 0.00 0.00 45 1028.4
20200229015016 20 135 14.5 22.5 0.00 0.00 0.00 44 1028.4
20200229014016 20 135 17.7 25.7 0.00 0.00 0.00 42 1028.2
20200229013016 20 135 12.9 19.3 0.00 0.00 0.00 40 1027.6
20200229012016 21 135 17.7 24.1 0.00 0.00 0.00 37 1027.3
20200229011016 21 157 3.2 6.4 0.00 0.00 0.00 31 1026.9
20200229010017 21 180 4.8 6.4 0.00 0.00 0.00 31 1026.8
20200229005016 22 135 9.7 12.9 0.00 0.00 0.00 30 1026.7
20200229004016 22 135 12.9 17.7 0.00 0.00 0.00 29 1026.7
20200229003016 23 157 12.9 19.3 0.00 0.00 0.00 27 1026.8
20200229002016 23 157 11.3 14.5 0.00 0.00 0.00 26 1026.8
20200229001016 24 157 12.9 16.1 0.00 0.00 0.00 25 1026.7
20200229000016 24 135 12.9 17.7 0.00 0.00 0.00 24 1026.6
20200228235016 24 135 6.4 11.3 0.00 0.00 0.00 23 1026.6
20200228234016 25 135 11.3 16.1 0.00 0.00 0.00 23 1026.3
20200228233016 25 157 6.4 11.3 0.00 0.00 0.00 23 1026.4
20200228232015 25 135 8.0 12.9 0.00 0.00 0.00 23 1026.4
20200228231016 25 135 8.0 14.5 0.00 0.00 0.00 23 1026.3
20200228230015 25 157 3.2 4.8 0.00 0.00 0.00 22 1026.3
20200228225015 25 135 6.4 14.5 0.00 0.00 0.00 22 1026.1
20200228224016 25 135 9.7 12.9 0.00 0.00 0.00 22 1026.2
20200228223016 25 67 6.4 14.5 0.00 0.00 0.00 22 1026.2
20200228222016 25 90 6.4 14.5 0.00 0.00 0.00 21 1026.4
20200228221015 25 180 11.3 19.3 0.00 0.00 0.00 22 1026.3
20200228220016 25 112 9.7 19.3 0.00 0.00 0.00 19 1026.4
20200228215015 25 135 12.9 19.3 0.00 0.00 0.00 20 1026.5
20200228214015 25 202 3.2 11.3 0.00 0.00 0.00 18 1026.4
20200228213016 25 135 6.4 12.9 0.00 0.00 0.00 18 1026.4
20200228212015 25 135 6.4 12.9 0.00 0.00 0.00 17 1026.4
20200228211016 25 135 8.0 16.1 0.00 0.00 0.00 18 1026.4
20200228210015 25 180 8.0 14.5 0.00 0.00 0.00 20 1026.6
20200228205015 25 135 9.7 17.7 0.00 0.00 0.00 20 1026.8
20200228204016 24 67 3.2 11.3 0.00 0.00 0.00 23 1026.8
20200228203016 24 135 14.5 25.7 0.00 0.00 0.00 23 1026.9
20200228202016 24 90 11.3 19.3 0.00 0.00 0.00 24 1027.1
20200228201015 23 112 4.8 11.3 0.00 0.00 0.00 24 1027.3
20200228200016 23 112 12.9 19.3 0.00 0.00 0.00 25 1027.5
20200228195016 23 90 6.4 17.7 0.00 0.00 0.00 25 1027.6
20200228194015 23 135 4.8 12.9 0.00 0.00 0.00 26 1027.8
20200228193016 23 157 14.5 25.7 0.00 0.00 0.00 25 1028.0
20200228192018 23 225 4.8 11.3 0.00 0.00 0.00 26 1028.1
20200228191015 23 157 16.1 29.0 0.00 0.00 0.00 27 1028.5
20200228190015 22 67 8.0 16.1 0.00 0.00 0.00 27 1028.6
20200228185015 22 90 9.7 14.5 0.00 0.00 0.00 28 1028.9
20200228184016 22 180 6.4 12.9 0.00 0.00 0.00 29 1029.1
20200228183015 22 157 8.0 16.1 0.00 0.00 0.00 29 1029.4
20200228182015 22 135 12.9 19.3 0.00 0.00 0.00 29 1029.6
20200228181016 21 22 3.2 6.4 0.00 0.00 0.00 32 1029.8
20200228180015 21 225 4.8 11.3 0.00 0.00 0.00 32 1029.9
20200228175018 20 247 8.0 14.5 0.00 0.00 0.00 33 1030.0
20200228174017 20 45 4.8 9.7 0.00 0.00 0.00 33 1030.1
20200228173017 20 315 4.8 11.3 0.00 0.00 0.00 34 1030.6
20200228172017 20 112 4.8 14.5 0.00 0.00 0.00 35 1030.9
20200228171017 19 112 3.2 11.3 0.00 0.00 0.00 36 1031.1
20200228170017 18 247 4.8 11.3 0.00 0.00 0.00 37 1031.3
20200228165017 18 45 3.2 8.0 0.00 0.00 0.00 38 1031.3
20200228164019 18 247 3.2 6.4 0.00 0.00 0.00 39 1031.4
20200228163017 18 315 1.6 9.7 0.00 0.00 0.00 39 1031.3
20200228162017 17 45 1.6 6.4 0.00 0.00 0.00 39 1031.2
20200228161017 17 90 3.2 11.3 0.00 0.00 0.00 40 1031.2
20200228160017 16 45 4.8 8.0 0.00 0.00 0.00 41 1031.1
20200228155017 16 112 3.2 9.7 0.00 0.00 0.00 40 1031.0
20200228154017 16 90 3.2 6.4 0.00 0.00 0.00 42 1031.0
20200228153017 15 90 1.6 6.4 0.00 0.00 0.00 43 1030.9
20200228152018 14 180 3.2 6.4 0.00 0.00 0.00 46 1030.9
20200228151017 13 157 3.2 8.0 0.00 0.00 0.00 48 1030.8
20200228150017 12 0.0 1.6 0.00 0.00 0.00 52 1030.7
20200228145017 11 292 1.6 3.2 0.00 0.00 0.00 55 1030.4
20200228144018 10 270 4.8 6.4 0.00 0.00 0.00 56 1030.3
20200228143017 8 270 6.4 9.7 0.00 0.00 0.00 58 1030.0
20200228142017 7 270 4.8 6.4 0.00 0.00 0.00 60 1029.9
20200228141017 6 292 4.8 9.7 0.00 0.00 0.00 62 1029.9
20200228140017 6 270 3.2 4.8 0.00 0.00 0.00 63 1029.8
20200228135017 5 247 1.6 3.2 0.00 0.00 0.00 66 1029.7
20200228134018 5 247 3.2 4.8 0.00 0.00 0.00 66 1029.7
20200228133017 5 270 3.2 4.8 0.00 0.00 0.00 66 1029.8
20200228132017 4 270 1.6 3.2 0.00 0.00 0.00 65 1029.6
20200228131017 4 270 1.6 3.2 0.00 0.00 0.00 66 1029.5
20200228130017 4 270 3.2 4.8 0.00 0.00 0.00 63 1029.3
20200228125017 4 270 6.4 9.7 0.00 0.00 0.00 63 1029.1
20200228124018 4 270 4.8 9.7 0.00 0.00 0.00 62 1029.0
20200228123017 3 270 6.4 9.7 0.00 0.00 0.00 62 1028.7
20200228122017 3 270 3.2 4.8 0.00 0.00 0.00 61 1028.6
20200228121017 3 270 4.8 6.4 0.00 0.00 0.00 61 1028.4
20200228120017 3 270 4.8 6.4 0.00 0.00 0.00 62 1028.3
20200228115017 3 270 3.2 4.8 0.00 0.00 0.00 61 1028.1
20200228114017 3 270 1.6 3.2 0.00 0.00 0.00 64 1027.7
20200228113017 3 292 3.2 4.8 0.00 0.00 0.00 64 1027.6
20200228112017 4 292 3.2 4.8 0.00 0.00 0.00 64 1027.7
20200228111017 3 292 3.2 4.8 0.00 0.00 0.00 62 1027.8
20200228110018 4 292 1.6 3.2 0.00 0.00 0.00 61 1027.6
20200228105017 4 0.0 1.6 0.00 0.00 0.00 62 1027.7
20200228104017 4 292 1.6 3.2 0.00 0.00 0.00 60 1027.8